Time;durP1;ratioP1;P1;durP2;ratioP2;P2;SDS_P1;SDS_P2;PMS_P1;PMS_P2;Temp;Humidity;BMP_temperature;BMP_pressure;BME280_temperature;BME280_humidity;BME280_pressure;Samples;Min_cycle;Max_cycle;Signal;HPM_P1;HPM_P2
2023/06/03 00:00:32;;;;;;;4.47;0.70;;;;;;;11.20;60.65;101831.66;5035263;28;20463;-72
2023/06/03 00:02:59;;;;;;;6.97;0.93;;;;;;;11.14;60.91;101832.75;5035560;28;20439;-73
2023/06/03 00:05:26;;;;;;;4.73;0.90;;;;;;;11.07;61.91;101825.72;5035282;28;20440;-73
2023/06/03 00:07:52;;;;;;;4.50;0.70;;;;;;;11.05;61.97;101829.78;5035244;28;20482;-72
2023/06/03 00:10:19;;;;;;;5.07;0.90;;;;;;;11.02;62.32;101827.63;5035216;28;20494;-72
2023/06/03 00:12:46;;;;;;;5.10;1.00;;;;;;;11.01;62.07;101832.22;5035178;28;20443;-73
2023/06/03 00:15:12;;;;;;;5.10;1.00;;;;;;;10.90;62.69;101833.34;5035151;28;20831;-75
2023/06/03 00:17:40;;;;;;;4.60;0.90;;;;;;;10.82;62.62;101831.97;5035138;28;20448;-72
2023/06/03 00:20:09;;;;;;;4.90;0.80;;;;;;;10.82;63.32;101834.69;5034968;28;20499;-71
2023/06/03 00:22:36;;;;;;;4.83;0.73;;;;;;;10.71;63.87;101830.34;5034913;28;20526;-72
2023/06/03 00:25:03;;;;;;;4.70;0.90;;;;;;;10.72;63.79;101832.00;5034595;28;20443;-72
2023/06/03 00:27:29;;;;;;;7.33;1.20;;;;;;;10.78;63.63;101832.81;5034856;28;20474;-73
2023/06/03 00:29:56;;;;;;;10.63;1.37;;;;;;;10.75;62.33;101836.84;5034685;28;20463;-72
2023/06/03 00:32:22;;;;;;;4.83;1.00;;;;;;;10.71;61.42;101838.47;5034541;28;20445;-73
2023/06/03 00:34:50;;;;;;;4.63;0.70;;;;;;;10.65;61.70;101838.75;5034306;28;20450;-72
2023/06/03 00:37:17;;;;;;;4.90;0.83;;;;;;;10.59;62.13;101840.66;5034675;28;20450;-72
2023/06/03 00:39:44;;;;;;;5.27;1.10;;;;;;;10.55;62.81;101834.16;5034203;28;20463;-72
2023/06/03 00:42:10;;;;;;;6.43;1.43;;;;;;;10.56;63.94;101831.16;5034251;28;21000;-73
2023/06/03 00:44:37;;;;;;;4.50;0.70;;;;;;;10.46;64.50;101839.28;5034588;28;20542;-72
2023/06/03 00:47:04;;;;;;;8.27;1.77;;;;;;;10.39;64.82;101843.34;5034185;28;20475;-72
2023/06/03 00:49:32;;;;;;;4.60;0.70;;;;;;;10.28;65.22;101839.81;5034073;28;20916;-71
2023/06/03 00:52:00;;;;;;;5.57;1.20;;;;;;;10.24;65.07;101839.53;5034035;28;20444;-72
2023/06/03 00:54:27;;;;;;;4.67;0.80;;;;;;;10.17;65.12;101844.34;5034224;28;20449;-71
2023/06/03 00:56:54;;;;;;;4.80;0.90;;;;;;;10.20;64.93;101843.00;5034021;28;20940;-71
2023/06/03 00:59:21;;;;;;;4.70;0.80;;;;;;;10.18;65.10;101842.44;5034224;28;20542;-72
2023/06/03 01:01:48;;;;;;;4.77;0.90;;;;;;;10.02;65.81;101841.59;5034418;28;20478;-71
2023/06/03 01:04:16;;;;;;;5.10;0.90;;;;;;;10.04;66.02;101848.34;5034150;28;20439;-69
2023/06/03 01:06:53;;;;;;;5.40;1.00;;;;;;;9.95;65.53;101839.13;5034118;28;20891;-69
2023/06/03 01:09:30;;;;;;;4.27;0.53;;;;;;;9.96;64.18;101845.34;5034068;28;20473;-69
2023/06/03 01:12:08;;;;;;;4.90;0.90;;;;;;;9.95;63.53;101851.84;5034107;28;20415;-72
2023/06/03 01:14:44;;;;;;;5.13;1.30;;;;;;;9.80;64.12;101853.44;5034029;28;20439;-72
2023/06/03 01:17:15;;;;;;;12.23;1.00;;;;;;;9.83;64.27;101849.38;5033694;28;20971;-72
2023/06/03 01:19:48;;;;;;;4.70;0.90;;;;;;;9.79;64.39;101848.28;5033578;28;20478;-72
2023/06/03 01:22:16;;;;;;;5.10;1.00;;;;;;;9.79;64.18;101849.09;5033704;28;20467;-71
2023/06/03 01:24:45;;;;;;;5.00;0.80;;;;;;;9.77;65.64;101850.44;5034025;28;20538;-69
2023/06/03 01:27:12;;;;;;;4.70;0.70;;;;;;;9.75;66.13;101850.72;5033862;28;20819;-71
2023/06/03 01:29:40;;;;;;;5.63;1.20;;;;;;;9.77;66.27;101850.44;5033332;28;20521;-71
2023/06/03 01:32:10;;;;;;;5.53;1.00;;;;;;;9.75;66.04;101847.19;5033378;28;20440;-71
2023/06/03 01:34:38;;;;;;;5.23;0.90;;;;;;;9.77;65.97;101851.25;5033320;28;21036;-71
2023/06/03 01:37:06;;;;;;;4.67;0.87;;;;;;;9.71;66.83;101867.72;5033486;28;20493;-70
2023/06/03 01:39:33;;;;;;;4.97;0.70;;;;;;;9.79;66.33;101859.13;5033187;28;21007;-72
2023/06/03 01:42:01;;;;;;;5.60;0.90;;;;;;;9.69;67.17;101856.34;5033422;28;20573;-71
2023/06/03 01:44:27;;;;;;;6.87;1.27;;;;;;;9.66;66.73;101860.41;5033551;28;20497;-69
2023/06/03 01:46:54;;;;;;;5.73;1.30;;;;;;;9.64;66.56;101861.72;5032891;28;20974;-71
2023/06/03 01:49:21;;;;;;;10.50;1.33;;;;;;;9.66;67.19;101854.19;5033094;28;20498;-71
2023/06/03 01:51:48;;;;;;;4.37;0.67;;;;;;;9.58;66.89;101852.78;5033344;28;20439;-71
2023/06/03 01:54:14;;;;;;;4.80;0.70;;;;;;;9.67;66.66;101862.03;5033379;28;20458;-71
2023/06/03 01:56:41;;;;;;;5.03;0.63;;;;;;;9.60;67.11;101856.03;5033448;28;20454;-70
2023/06/03 01:59:09;;;;;;;5.60;1.50;;;;;;;9.57;67.09;101856.56;5033303;28;20490;-71
2023/06/03 02:01:36;;;;;;;6.20;1.30;;;;;;;9.49;67.68;101857.06;5033242;28;20501;-71
2023/06/03 02:04:03;;;;;;;6.70;1.00;;;;;;;9.48;67.07;101853.56;5032968;28;20815;-71
2023/06/03 02:06:30;;;;;;;5.13;1.10;;;;;;;9.39;67.89;101857.84;5033209;28;20519;-71
2023/06/03 02:08:56;;;;;;;4.70;0.97;;;;;;;9.38;68.15;101850.78;5033084;28;20545;-71
2023/06/03 02:11:23;;;;;;;4.77;0.80;;;;;;;9.35;68.09;101857.53;5033149;28;20442;-71
2023/06/03 02:13:49;;;;;;;6.40;1.07;;;;;;;9.30;67.88;101857.50;5032951;28;20538;-70
2023/06/03 02:16:17;;;;;;;6.87;1.17;;;;;;;9.32;67.60;101854.53;5032810;28;20982;-70
2023/06/03 02:18:45;;;;;;;4.97;0.80;;;;;;;9.24;68.08;101858.53;5032770;28;20900;-71
2023/06/03 02:21:11;;;;;;;4.60;0.60;;;;;;;9.11;68.70;101856.28;5032996;28;20500;-71
2023/06/03 02:23:38;;;;;;;4.80;0.70;;;;;;;9.15;68.87;101853.88;5033124;28;20815;-72
2023/06/03 02:26:05;;;;;;;5.63;0.97;;;;;;;9.07;68.59;101855.16;5033076;28;20475;-72
2023/06/03 02:28:31;;;;;;;7.50;1.10;;;;;;;8.93;68.64;101851.28;5033164;28;20473;-72
2023/06/03 02:30:58;;;;;;;4.80;1.10;;;;;;;8.94;68.56;101858.31;5033061;28;20435;-71
2023/06/03 02:33:26;;;;;;;7.23;0.70;;;;;;;8.84;67.69;101859.03;5032705;28;20475;-72
2023/06/03 02:35:52;;;;;;;5.60;0.70;;;;;;;8.71;67.25;101862.19;5032949;28;20941;-72
2023/06/03 02:38:19;;;;;;;4.90;0.80;;;;;;;8.72;66.22;101856.53;5032812;28;20952;-72
2023/06/03 02:40:45;;;;;;;5.17;1.17;;;;;;;8.59;66.83;101862.34;5032877;28;20449;-72
2023/06/03 02:43:13;;;;;;;5.30;0.90;;;;;;;8.52;68.00;101857.16;5032819;28;20522;-72
2023/06/03 02:45:40;;;;;;;4.70;1.00;;;;;;;8.45;70.43;101855.72;5032458;28;20443;-72
2023/06/03 02:48:06;;;;;;;4.87;0.80;;;;;;;8.53;70.29;101856.06;5032726;28;20439;-74
2023/06/03 02:50:34;;;;;;;4.77;0.93;;;;;;;8.49;70.77;101862.25;5032490;28;20570;-73
2023/06/03 02:53:01;;;;;;;4.93;1.00;;;;;;;8.44;71.09;101859.50;5032443;28;20446;-72
2023/06/03 02:55:28;;;;;;;5.07;0.87;;;;;;;8.42;71.56;101859.75;5032742;28;20812;-73
2023/06/03 02:57:54;;;;;;;5.30;1.27;;;;;;;8.45;71.75;101856.53;5033462;28;20454;-72
2023/06/03 03:00:21;;;;;;;4.70;0.80;;;;;;;8.42;72.52;101858.94;5036493;28;20461;-73
2023/06/03 03:02:48;;;;;;;4.80;0.70;;;;;;;8.46;72.24;101850.09;5036102;28;20486;-73
2023/06/03 03:05:16;;;;;;;5.80;1.17;;;;;;;8.43;72.79;101861.38;5036464;28;20530;-71
2023/06/03 03:07:44;;;;;;;6.70;1.10;;;;;;;8.41;73.27;101851.91;5036357;28;20455;-71
2023/06/03 03:10:11;;;;;;;4.63;0.73;;;;;;;8.49;72.40;101862.25;5036283;28;20469;-71
2023/06/03 03:12:38;;;;;;;4.90;0.93;;;;;;;8.40;72.63;101858.38;5036565;28;20871;-71
2023/06/03 03:15:05;;;;;;;4.90;0.97;;;;;;;8.43;72.29;101857.88;5035963;28;20972;-71
2023/06/03 03:17:32;;;;;;;5.10;1.03;;;;;;;8.40;72.67;101863.78;5035824;28;20889;-71
2023/06/03 03:19:59;;;;;;;4.57;0.80;;;;;;;8.38;72.85;101857.81;5036063;28;20477;-70
2023/06/03 03:22:27;;;;;;;4.67;0.90;;;;;;;8.26;73.54;101857.94;5035683;28;20852;-71
2023/06/03 03:24:55;;;;;;;4.53;0.80;;;;;;;8.27;74.10;101864.94;5035981;28;20933;-71
2023/06/03 03:27:22;;;;;;;4.50;0.80;;;;;;;8.35;73.20;101869.91;5035725;28;20478;-71
2023/06/03 03:29:50;;;;;;;4.70;0.80;;;;;;;8.44;73.19;101868.41;5035917;28;20494;-71
2023/06/03 03:32:17;;;;;;;5.23;0.87;;;;;;;8.49;73.20;101873.03;5035611;28;20975;-71
2023/06/03 03:34:43;;;;;;;4.83;0.93;;;;;;;8.52;72.69;101869.84;5035880;28;20458;-71
2023/06/03 03:37:13;;;;;;;5.10;0.80;;;;;;;8.58;72.90;101866.09;5035868;28;20457;-71
2023/06/03 03:39:40;;;;;;;4.77;0.80;;;;;;;8.62;72.46;101864.53;5036874;28;20502;-71
2023/06/03 03:42:09;;;;;;;4.50;0.70;;;;;;;8.64;72.63;101869.69;5035687;28;20570;-71
2023/06/03 03:44:37;;;;;;;4.57;0.77;;;;;;;8.75;71.99;101861.41;5035712;28;20513;-70
2023/06/03 03:47:03;;;;;;;5.23;1.00;;;;;;;8.82;70.88;101863.91;5035633;28;20443;-70
2023/06/03 03:49:31;;;;;;;5.23;0.87;;;;;;;8.83;69.71;101866.34;5035264;28;20489;-71
2023/06/03 03:52:04;;;;;;;4.47;0.67;;;;;;;8.92;69.51;101861.28;5035531;28;20829;-70
2023/06/03 03:54:30;;;;;;;4.43;0.80;;;;;;;8.99;67.55;101874.59;5035241;28;20933;-71
2023/06/03 03:56:57;;;;;;;5.50;1.00;;;;;;;9.12;67.68;101876.84;5035212;28;20451;-70
2023/06/03 03:59:27;;;;;;;10.80;0.90;;;;;;;9.16;66.47;101882.53;5035401;28;20489;-71
2023/06/03 04:01:54;;;;;;;6.10;1.00;;;;;;;9.25;67.62;101881.81;5035297;28;20447;-71
2023/06/03 04:04:37;;;;;;;6.10;0.77;;;;;;;9.34;67.94;101892.94;5035377;28;20471;-71
2023/06/03 04:07:04;;;;;;;6.50;1.17;;;;;;;9.39;68.71;101892.97;5035382;28;20438;-70
2023/06/03 04:09:30;;;;;;;12.20;1.60;;;;;;;9.49;70.57;101884.94;5034702;28;20482;-70
2023/06/03 04:11:57;;;;;;;4.90;1.13;;;;;;;9.50;72.06;101893.84;5035479;28;20443;-70
2023/06/03 04:14:44;;;;;;;5.83;1.13;;;;;;;9.60;69.29;101889.31;5035125;28;20443;-70
2023/06/03 04:17:13;;;;;;;4.60;0.80;;;;;;;9.69;69.48;101892.31;5034663;28;20449;-70
2023/06/03 04:19:41;;;;;;;5.10;0.90;;;;;;;9.73;70.42;101888.03;5034949;28;20459;-71
2023/06/03 04:22:09;;;;;;;5.20;0.87;;;;;;;9.79;70.32;101888.88;5034933;28;20493;-71
2023/06/03 04:24:36;;;;;;;4.87;0.57;;;;;;;9.80;70.93;101891.31;5034657;28;20453;-71
2023/06/03 04:27:04;;;;;;;4.90;0.70;;;;;;;9.88;71.16;101892.72;5034938;28;20545;-71
2023/06/03 04:29:32;;;;;;;5.00;0.73;;;;;;;9.94;70.26;101897.06;5035065;28;20463;-71
2023/06/03 04:31:58;;;;;;;5.30;1.07;;;;;;;10.04;69.11;101909.81;5034550;28;21016;-71
2023/06/03 04:34:28;;;;;;;4.80;0.83;;;;;;;10.07;69.19;101906.59;5034811;28;20443;-71
2023/06/03 04:36:54;;;;;;;9.13;1.03;;;;;;;10.15;68.08;101897.16;5034438;28;20971;-71
2023/06/03 04:39:21;;;;;;;4.90;0.93;;;;;;;10.22;68.46;101894.97;5034689;28;20463;-71
2023/06/03 04:41:48;;;;;;;7.30;1.30;;;;;;;10.29;69.01;101901.00;5034648;28;20445;-71
2023/06/03 04:44:15;;;;;;;5.10;0.90;;;;;;;10.27;69.91;101895.88;5034298;28;20481;-71
2023/06/03 04:46:45;;;;;;;5.27;1.17;;;;;;;10.34;70.11;101899.13;5034773;28;20447;-72
2023/06/03 04:49:12;;;;;;;4.50;1.00;;;;;;;10.42;68.77;101897.78;5034216;28;20569;-71
2023/06/03 04:51:40;;;;;;;4.60;0.80;;;;;;;10.49;69.64;101894.81;5034115;28;20538;-70
2023/06/03 04:54:07;;;;;;;5.43;1.23;;;;;;;10.56;68.08;101900.78;5034087;28;20955;-70
2023/06/03 04:56:33;;;;;;;7.23;1.40;;;;;;;10.58;69.52;101885.91;5034387;28;20447;-71
2023/06/03 04:59:03;;;;;;;6.53;1.03;;;;;;;10.60;69.81;101891.06;5034250;28;20495;-71
2023/06/03 05:01:31;;;;;;;5.30;0.97;;;;;;;10.62;68.06;101891.59;5034230;28;20574;-71
2023/06/03 05:03:59;;;;;;;5.00;1.17;;;;;;;10.66;67.42;101886.44;5033777;28;20487;-71
2023/06/03 05:06:26;;;;;;;4.90;0.80;;;;;;;10.63;66.30;101892.44;5033840;28;20482;-71
2023/06/03 05:08:53;;;;;;;4.93;0.90;;;;;;;10.66;66.53;101889.16;5034048;28;20463;-71
2023/06/03 05:11:20;;;;;;;5.27;1.13;;;;;;;10.69;64.68;101894.03;5033949;28;20479;-70
2023/06/03 05:13:47;;;;;;;4.40;0.73;;;;;;;10.69;63.44;101896.75;5034065;28;20454;-72
2023/06/03 05:16:14;;;;;;;4.37;0.80;;;;;;;10.69;63.68;101894.84;5033918;28;20447;-72
2023/06/03 05:18:40;;;;;;;5.13;1.00;;;;;;;10.66;63.30;101895.38;5033582;28;20902;-71
2023/06/03 05:21:08;;;;;;;5.57;1.10;;;;;;;10.65;62.99;101893.75;5033144;28;20824;-72
2023/06/03 05:23:35;;;;;;;5.43;1.30;;;;;;;10.76;63.28;101898.13;5033765;28;20577;-72
2023/06/03 05:26:01;;;;;;;5.67;1.33;;;;;;;10.76;63.85;101884.56;5033862;28;20525;-72
2023/06/03 05:28:28;;;;;;;4.90;1.03;;;;;;;10.79;64.68;101884.00;5033747;28;20471;-72
2023/06/03 05:30:55;;;;;;;4.40;0.73;;;;;;;10.84;65.03;101894.84;5033734;28;20448;-71
2023/06/03 05:33:25;;;;;;;5.73;1.23;;;;;;;10.95;64.87;101894.88;5033721;28;20444;-72
2023/06/03 05:35:52;;;;;;;5.43;0.83;;;;;;;11.05;64.37;101886.72;5033362;28;20478;-69
2023/06/03 05:38:20;;;;;;;6.00;1.07;;;;;;;11.15;65.37;101885.91;5033562;28;20470;-68
2023/06/03 05:40:48;;;;;;;5.33;1.17;;;;;;;11.25;64.70;101889.44;5033591;28;20455;-68
2023/06/03 05:43:15;;;;;;;4.50;0.80;;;;;;;11.40;64.62;101888.59;5033394;28;20483;-70
2023/06/03 05:45:41;;;;;;;4.73;0.90;;;;;;;11.47;63.53;101882.91;5033487;28;20537;-69
2023/06/03 05:48:08;;;;;;;5.80;1.30;;;;;;;11.52;63.08;101893.72;5033354;28;20450;-70
2023/06/03 05:50:37;;;;;;;7.30;1.77;;;;;;;11.55;61.89;101890.44;5033421;28;20482;-69
2023/06/03 05:53:04;;;;;;;5.07;1.07;;;;;;;11.64;61.03;101888.78;5033430;28;20515;-70
2023/06/03 05:55:32;;;;;;;6.63;1.57;;;;;;;11.71;60.21;101888.53;5033349;28;20466;-71
2023/06/03 05:57:59;;;;;;;4.60;0.77;;;;;;;11.80;59.00;101884.94;5033339;28;20447;-71
2023/06/03 06:00:27;;;;;;;4.63;0.73;;;;;;;11.85;58.77;101884.97;5033233;28;20576;-71
2023/06/03 06:02:54;;;;;;;5.00;1.00;;;;;;;12.01;58.69;101893.06;5033293;28;20483;-70
2023/06/03 06:05:21;;;;;;;6.20;1.17;;;;;;;12.12;58.26;101884.56;5033295;28;20526;-70
2023/06/03 06:07:47;;;;;;;4.70;1.07;;;;;;;12.18;56.53;101896.25;5032927;28;20949;-70
2023/06/03 06:10:14;;;;;;;6.00;1.40;;;;;;;12.28;57.43;101888.03;5032857;28;20463;-73
2023/06/03 06:12:42;;;;;;;4.60;0.77;;;;;;;12.41;57.68;101889.31;5033205;28;20443;-72
2023/06/03 06:15:10;;;;;;;5.93;1.20;;;;;;;12.52;57.83;101887.34;5033064;28;20482;-70
2023/06/03 06:17:37;;;;;;;5.10;1.17;;;;;;;12.57;56.29;101892.72;5033107;28;20450;-71
2023/06/03 06:20:05;;;;;;;5.63;1.00;;;;;;;12.65;56.77;101891.34;5033103;28;20503;-71
2023/06/03 06:22:31;;;;;;;5.27;1.20;;;;;;;12.79;56.34;101889.59;5033006;28;20471;-73
2023/06/03 06:24:58;;;;;;;5.30;0.97;;;;;;;12.90;56.95;101888.44;5033050;28;20457;-73
2023/06/03 06:27:25;;;;;;;5.20;1.10;;;;;;;13.00;56.57;101888.34;5033022;28;20439;-73
2023/06/03 06:29:53;;;;;;;4.40;0.77;;;;;;;13.10;55.26;101891.00;5032962;28;20467;-72
2023/06/03 06:32:23;;;;;;;7.50;1.27;;;;;;;13.19;55.35;101888.44;5034395;28;20445;-73
2023/06/03 06:34:50;;;;;;;5.50;1.40;;;;;;;13.27;55.42;101893.28;5036992;28;20496;-72
2023/06/03 06:37:19;;;;;;;6.47;0.97;;;;;;;13.34;55.52;101893.78;5037021;28;20526;-73
2023/06/03 06:39:48;;;;;;;4.20;0.60;;;;;;;13.45;54.82;101893.66;5036547;28;20462;-72
2023/06/03 06:42:24;;;;;;;7.00;1.33;;;;;;;13.52;52.85;101894.94;5036850;28;20444;-71
2023/06/03 06:44:51;;;;;;;5.43;1.10;;;;;;;13.59;53.08;101900.88;5036514;28;21065;-72
2023/06/03 06:47:23;;;;;;;5.80;0.97;;;;;;;13.64;53.51;101897.28;5036416;28;20793;-71
2023/06/03 06:49:50;;;;;;;5.50;1.00;;;;;;;13.73;52.85;101901.00;5036463;28;20483;-72
2023/06/03 06:52:16;;;;;;;4.80;1.07;;;;;;;13.75;51.55;101896.06;5036752;28;20474;-72
2023/06/03 06:54:43;;;;;;;5.43;1.00;;;;;;;13.81;51.18;101897.63;5036638;28;20445;-72
2023/06/03 06:57:10;;;;;;;5.47;0.90;;;;;;;13.88;50.86;101898.06;5036313;28;20529;-72
2023/06/03 06:59:36;;;;;;;5.27;1.07;;;;;;;14.01;52.12;101903.94;5036509;28;20474;-72
2023/06/03 07:02:03;;;;;;;4.80;0.70;;;;;;;14.11;52.11;101903.78;5036568;28;20528;-72
2023/06/03 07:04:31;;;;;;;5.00;1.03;;;;;;;14.18;50.68;101898.00;5036423;28;20565;-72
2023/06/03 07:06:58;;;;;;;5.03;0.80;;;;;;;14.25;50.55;101899.22;5036442;28;20442;-71
2023/06/03 07:09:24;;;;;;;6.20;1.47;;;;;;;14.33;49.75;101909.47;5036040;28;20554;-72
2023/06/03 07:11:51;;;;;;;5.57;1.17;;;;;;;14.35;49.60;101901.03;5036117;28;20530;-71
2023/06/03 07:14:18;;;;;;;6.97;1.27;;;;;;;14.40;49.03;101900.97;5036062;28;20453;-71
2023/06/03 07:16:46;;;;;;;19.83;1.43;;;;;;;14.46;49.91;101902.50;5036309;28;20485;-71
2023/06/03 07:19:13;;;;;;;8.90;1.20;;;;;;;14.62;50.01;101905.84;5036115;28;20467;-72
2023/06/03 07:21:41;;;;;;;5.50;1.10;;;;;;;14.66;49.36;101906.88;5036204;28;20443;-72
2023/06/03 07:24:11;;;;;;;6.50;0.90;;;;;;;14.77;49.23;101905.59;5035762;28;20577;-72
2023/06/03 07:26:40;;;;;;;5.23;1.00;;;;;;;14.86;48.37;101898.38;5036301;28;20447;-72
2023/06/03 07:29:07;;;;;;;8.17;1.60;;;;;;;14.95;48.45;101905.88;5035685;28;21022;-71
2023/06/03 07:31:36;;;;;;;4.60;0.70;;;;;;;14.94;47.72;101905.06;5036005;28;20439;-72
2023/06/03 07:34:04;;;;;;;6.53;0.93;;;;;;;15.02;48.48;101907.13;5035733;28;20805;-72
2023/06/03 07:36:30;;;;;;;5.33;1.23;;;;;;;15.08;48.58;101899.66;5035560;28;21039;-72
2023/06/03 07:39:02;;;;;;;6.27;1.10;;;;;;;15.13;47.60;101908.56;5035669;28;20546;-72
2023/06/03 07:41:42;;;;;;;4.97;1.10;;;;;;;15.10;47.07;101900.19;5035541;28;20442;-71
2023/06/03 07:44:10;;;;;;;4.70;1.00;;;;;;;15.18;48.62;101899.47;5034490;28;20497;-71
2023/06/03 07:46:40;;;;;;;4.50;0.70;;;;;;;15.25;46.96;101907.28;5035456;28;20489;-72
2023/06/03 07:49:08;;;;;;;5.80;1.30;;;;;;;15.28;48.22;101902.03;5035207;28;20565;-72
2023/06/03 07:51:35;;;;;;;6.37;1.00;;;;;;;15.29;46.35;101898.19;5035573;28;20531;-70
2023/06/03 07:54:04;;;;;;;7.60;1.20;;;;;;;15.36;47.09;101895.91;5035614;28;20443;-69
2023/06/03 07:56:31;;;;;;;5.90;0.93;;;;;;;15.50;47.77;101895.09;5035481;28;20996;-71
2023/06/03 07:59:00;;;;;;;4.80;1.00;;;;;;;15.63;46.97;101899.75;5035393;28;20486;-71
2023/06/03 08:01:27;;;;;;;5.67;1.27;;;;;;;15.65;46.24;101889.38;5035089;28;20447;-71
2023/06/03 08:03:54;;;;;;;5.10;1.10;;;;;;;15.74;46.99;101893.00;5035286;28;20490;-71
2023/06/03 08:06:23;;;;;;;5.33;1.23;;;;;;;15.87;46.65;101892.19;5035352;28;20522;-71
2023/06/03 08:08:51;;;;;;;5.63;0.90;;;;;;;15.99;45.73;101896.34;5034868;28;21015;-71
2023/06/03 08:11:18;;;;;;;5.00;0.90;;;;;;;16.08;45.39;101897.25;5035205;28;20455;-71
2023/06/03 08:13:45;;;;;;;5.80;2.10;;;;;;;16.08;43.95;101889.84;5034965;28;20937;-71
2023/06/03 08:16:14;;;;;;;5.53;0.80;;;;;;;16.12;44.70;101893.59;5035196;28;20445;-71
2023/06/03 08:18:44;;;;;;;6.10;1.20;;;;;;;16.13;44.30;101905.34;5035071;28;20470;-71
2023/06/03 08:21:11;;;;;;;5.53;0.90;;;;;;;16.22;44.73;101908.97;5034756;28;20439;-71
2023/06/03 08:23:37;;;;;;;4.87;0.87;;;;;;;16.26;43.60;101899.03;5034733;28;20483;-71
2023/06/03 08:26:05;;;;;;;4.70;0.60;;;;;;;16.39;44.04;101895.47;5034964;28;20446;-70
2023/06/03 08:28:33;;;;;;;6.50;1.03;;;;;;;16.53;43.09;101894.59;5034553;28;20524;-71
2023/06/03 08:30:59;;;;;;;5.33;1.10;;;;;;;16.61;43.90;101889.22;5034911;28;20478;-71
2023/06/03 08:33:26;;;;;;;5.70;0.87;;;;;;;16.68;44.41;101898.91;5034938;28;20439;-71
2023/06/03 08:35:53;;;;;;;4.50;0.90;;;;;;;16.63;43.75;101895.16;5034531;28;20451;-71
2023/06/03 08:38:20;;;;;;;4.50;0.77;;;;;;;16.73;42.95;101891.41;5034659;28;20561;-71
2023/06/03 08:40:49;;;;;;;6.83;0.90;;;;;;;16.77;42.58;101894.34;5034722;28;20443;-70
2023/06/03 08:43:16;;;;;;;4.10;0.50;;;;;;;16.85;42.76;101888.91;5034525;28;20535;-70
2023/06/03 08:45:53;;;;;;;5.80;1.00;;;;;;;16.98;42.62;101891.91;5034558;28;20481;-71
2023/06/03 08:48:27;;;;;;;13.10;0.90;;;;;;;16.96;41.62;101897.72;5034076;28;20513;-71
2023/06/03 08:51:03;;;;;;;4.40;0.70;;;;;;;17.05;42.10;101898.56;5034562;28;20419;-74
2023/06/03 08:53:34;;;;;;;4.67;0.83;;;;;;;17.11;42.00;101897.31;5034440;28;20428;-69
2023/06/03 08:56:02;;;;;;;4.40;0.77;;;;;;;17.19;40.82;101898.50;5034278;28;20435;-71
2023/06/03 08:58:36;;;;;;;4.40;0.87;;;;;;;17.27;41.87;101900.47;5034202;28;20451;-71
2023/06/03 09:01:05;;;;;;;7.00;1.10;;;;;;;17.35;40.67;101902.44;5034643;28;20850;-71
2023/06/03 09:03:32;;;;;;;8.50;1.50;;;;;;;17.38;41.88;101895.53;5034238;28;20487;-71
2023/06/03 09:06:00;;;;;;;6.23;1.20;;;;;;;17.54;39.55;101890.44;5034268;28;20443;-71
2023/06/03 09:08:28;;;;;;;5.63;1.03;;;;;;;17.59;40.11;101893.84;5034132;28;20485;-71
2023/06/03 09:10:56;;;;;;;4.40;0.70;;;;;;;17.72;40.02;101894.06;5034040;28;20818;-71
2023/06/03 09:13:23;;;;;;;4.10;0.60;;;;;;;17.77;40.43;101889.28;5033642;28;20482;-71
2023/06/03 09:15:51;;;;;;;4.60;0.67;;;;;;;17.88;40.07;101892.50;5033662;28;21019;-71
2023/06/03 09:18:19;;;;;;;5.23;0.97;;;;;;;18.02;39.50;101890.47;5033514;28;20451;-70
2023/06/03 09:20:46;;;;;;;4.93;0.87;;;;;;;18.14;37.69;101887.09;5034028;28;20521;-70
2023/06/03 09:23:13;;;;;;;9.03;1.30;;;;;;;18.20;37.38;101885.81;5033615;28;20870;-71
2023/06/03 09:25:40;;;;;;;5.00;1.00;;;;;;;18.08;36.63;101880.16;5033492;28;20570;-71
2023/06/03 09:28:06;;;;;;;6.30;1.10;;;;;;;18.02;38.38;101885.00;5033869;28;20466;-71
2023/06/03 09:30:35;;;;;;;5.27;1.10;;;;;;;18.09;39.04;101879.81;5033707;28;20896;-71
2023/06/03 09:33:01;;;;;;;4.70;0.90;;;;;;;18.23;38.67;101865.97;5033548;28;20533;-71
2023/06/03 09:35:30;;;;;;;4.43;0.70;;;;;;;18.37;38.38;101872.13;5033269;28;20449;-70
2023/06/03 09:38:00;;;;;;;4.30;0.63;;;;;;;18.47;38.65;101868.25;5033660;28;20478;-71
2023/06/03 09:40:28;;;;;;;7.03;1.10;;;;;;;18.49;38.84;101876.16;5033451;28;20470;-70
2023/06/03 09:42:54;;;;;;;8.13;0.90;;;;;;;18.60;38.16;101877.44;5033522;28;20443;-70
2023/06/03 09:45:29;;;;;;;8.17;1.00;;;;;;;18.73;38.28;101873.75;5033560;28;20526;-70
2023/06/03 09:47:56;;;;;;;4.60;0.70;;;;;;;18.66;35.55;101867.91;5072186;22;20570;-65
2023/06/03 09:50:24;;;;;;;4.40;0.60;;;;;;;18.73;35.76;101868.28;5053354;28;20457;-64
2023/06/03 09:52:52;;;;;;;4.07;0.60;;;;;;;18.88;36.78;101870.50;5053099;28;20449;-65
2023/06/03 09:55:20;;;;;;;4.20;0.70;;;;;;;18.90;37.04;101875.66;5053033;28;20810;-66
2023/06/03 09:58:04;;;;;;;4.30;0.60;;;;;;;18.99;37.94;101879.22;5053019;28;20482;-66
2023/06/03 10:00:32;;;;;;;4.13;0.60;;;;;;;19.11;38.26;101870.28;5053239;28;20477;-65
2023/06/03 10:03:07;;;;;;;4.80;0.80;;;;;;;19.27;36.72;101881.56;5053410;28;20442;-65
2023/06/03 10:05:34;;;;;;;7.03;0.90;;;;;;;19.38;36.98;101878.09;5053678;28;20474;-65
2023/06/03 10:08:03;;;;;;;4.50;0.80;;;;;;;19.42;35.82;101881.81;5052816;28;20465;-65
2023/06/03 10:10:30;;;;;;;4.40;0.70;;;;;;;19.54;36.16;101885.81;5052887;28;20816;-65
2023/06/03 10:12:58;;;;;;;4.87;1.00;;;;;;;19.62;34.83;101879.50;5053312;28;20477;-65
2023/06/03 10:15:35;;;;;;;4.30;0.60;;;;;;;19.71;35.32;101880.28;5053301;28;20464;-65
2023/06/03 10:18:02;;;;;;;4.30;0.70;;;;;;;19.55;32.69;101868.97;5052838;28;20462;-65
2023/06/03 10:20:36;;;;;;;4.50;0.90;;;;;;;19.51;36.79;101865.28;5053621;28;20533;-64
2023/06/03 10:23:06;;;;;;;4.63;0.80;;;;;;;19.37;35.29;101861.97;5053078;28;20513;-65
2023/06/03 10:25:40;;;;;;;4.63;1.03;;;;;;;19.44;36.00;101864.22;5052647;28;20482;-66
2023/06/03 10:28:07;;;;;;;4.20;0.60;;;;;;;19.61;34.94;101855.88;5052812;28;20462;-65
2023/06/03 10:30:35;;;;;;;5.80;0.80;;;;;;;19.71;36.12;101855.53;5052933;28;20486;-65
2023/06/03 10:33:04;;;;;;;4.87;0.77;;;;;;;19.90;34.41;101866.09;5052825;28;20486;-65
2023/06/03 10:35:32;;;;;;;4.77;1.00;;;;;;;20.05;35.47;101864.69;5052904;28;20441;-66
2023/06/03 10:37:59;;;;;;;4.70;0.90;;;;;;;20.04;33.70;101865.84;5052604;28;20932;-66
2023/06/03 10:40:28;;;;;;;4.60;0.60;;;;;;;20.06;33.79;101852.56;5052535;28;20448;-64
2023/06/03 10:42:56;;;;;;;5.53;1.00;;;;;;;20.00;33.47;101846.44;5052820;28;20442;-65
2023/06/03 10:45:23;;;;;;;4.43;0.70;;;;;;;19.99;32.13;101853.09;5052694;28;20482;-64
2023/06/03 10:47:54;;;;;;;4.60;0.87;;;;;;;19.93;34.12;101848.13;5052477;28;20481;-65
2023/06/03 10:50:31;;;;;;;4.30;0.70;;;;;;;20.11;34.24;101849.63;5052845;28;20430;-65
2023/06/03 10:53:13;;;;;;;4.67;0.90;;;;;;;20.34;34.44;101852.84;5052914;28;20430;-65
2023/06/03 10:55:53;;;;;;;4.67;0.80;;;;;;;20.54;32.96;101849.31;5053103;28;20414;-65
2023/06/03 10:58:22;;;;;;;4.40;0.80;;;;;;;20.53;32.19;101850.41;5052770;28;20470;-66
2023/06/03 11:00:56;;;;;;;5.20;1.03;;;;;;;20.46;31.11;101843.84;5052504;28;20445;-64
2023/06/03 11:03:24;;;;;;;4.40;0.90;;;;;;;20.36;34.30;101834.84;5052852;28;20818;-63
2023/06/03 11:05:52;;;;;;;4.83;0.77;;;;;;;20.26;32.75;101832.50;5052303;28;20486;-64
2023/06/03 11:08:57;;;;;;;5.50;1.10;;;;;;;20.31;31.94;101834.22;5052505;28;20613;-64
2023/06/03 11:11:58;;;;;;;4.70;0.77;;;;;;;20.52;33.02;101837.00;5046041;28;20962;-63
2023/06/03 11:14:54;;;;;;;4.93;0.80;;;;;;;20.99;36.28;101833.94;5052805;28;20433;-65
2023/06/03 11:17:25;;;;;;;4.30;0.73;;;;;;;21.63;33.36;101827.81;5052189;28;21011;-64
2023/06/03 11:19:55;;;;;;;4.53;0.70;;;;;;;22.08;31.73;101840.59;5054343;28;20899;-64
2023/06/03 11:22:41;;;;;;;4.93;0.80;;;;;;;22.51;31.64;101836.38;5056237;28;20458;-65
2023/06/03 11:25:09;;;;;;;4.33;0.80;;;;;;;23.07;29.81;101836.34;5055713;28;20524;-64
2023/06/03 11:27:37;;;;;;;4.00;0.50;;;;;;;23.41;29.38;101838.34;5055924;28;20502;-64
2023/06/03 11:30:07;;;;;;;4.10;0.60;;;;;;;23.99;30.57;101843.28;5055809;28;20446;-65
2023/06/03 11:32:36;;;;;;;4.20;0.50;;;;;;;24.56;29.27;101838.16;5055911;28;20450;-64